createdAt,value
2023-07-03T00:01:23.072Z,68.53
2023-07-03T00:03:53.089Z,68.80
2023-07-03T00:06:19.929Z,68.64
2023-07-03T00:08:46.527Z,68.32
2023-07-03T00:11:13.125Z,68.11
2023-07-03T00:13:39.594Z,68.41
2023-07-03T00:16:06.441Z,68.10
2023-07-03T00:18:33.126Z,68.30
2023-07-03T00:20:59.816Z,68.29
2023-07-03T00:23:26.993Z,68.23
2023-07-03T00:25:53.840Z,68.32
2023-07-03T00:28:20.893Z,68.20
2023-07-03T00:30:47.388Z,68.45
2023-07-03T00:33:14.028Z,68.59
2023-07-03T00:35:40.745Z,68.75
2023-07-03T00:38:07.799Z,68.39
2023-07-03T00:40:34.404Z,68.56
2023-07-03T00:43:01.963Z,68.71
2023-07-03T00:45:29.421Z,68.75
2023-07-03T00:47:56.359Z,68.65
2023-07-03T00:50:23.553Z,69.05
2023-07-03T00:52:56.029Z,68.64
2023-07-03T00:55:23.395Z,68.69
2023-07-03T00:57:52.193Z,68.89
2023-07-03T01:00:27.804Z,69.33
2023-07-03T01:03:21.611Z,69.41
2023-07-03T01:05:51.468Z,69.56
2023-07-03T01:08:18.880Z,69.40
2023-07-03T01:10:46.459Z,69.24
2023-07-03T01:13:17.524Z,69.76
2023-07-03T01:15:45.805Z,69.78
2023-07-03T01:18:13.735Z,70.24
2023-07-03T01:20:46.707Z,70.44
2023-07-03T01:23:19.080Z,70.44
2023-07-03T01:25:48.424Z,70.70
2023-07-03T01:28:19.234Z,71.03
2023-07-03T01:30:47.813Z,70.78
2023-07-03T01:33:22.901Z,71.21
2023-07-03T01:35:51.270Z,71.38
2023-07-03T01:38:21.028Z,71.34
2023-07-03T01:40:48.254Z,71.35
2023-07-03T01:43:15.282Z,71.85
2023-07-03T01:45:46.905Z,71.68
2023-07-03T01:48:14.074Z,72.11
2023-07-03T01:50:41.555Z,72.05
2023-07-03T01:53:41.964Z,72.26
2023-07-03T01:56:22.947Z,72.21
2023-07-03T01:58:52.949Z,72.71
2023-07-03T02:01:28.326Z,72.99
2023-07-03T02:04:11.965Z,73.63
2023-07-03T02:06:43.064Z,73.69
2023-07-03T02:09:10.913Z,73.65
2023-07-03T02:11:37.609Z,73.69
2023-07-03T02:14:04.423Z,74.23
2023-07-03T02:16:31.221Z,74.62
2023-07-03T02:18:59.966Z,74.24
2023-07-03T02:21:28.562Z,74.65
2023-07-03T02:23:55.381Z,74.23
2023-07-03T02:26:22.026Z,74.59
2023-07-03T02:28:48.555Z,74.59
2023-07-03T02:31:15.240Z,74.32
2023-07-03T02:33:41.973Z,74.69
2023-07-03T02:36:08.509Z,74.51
2023-07-03T02:38:35.085Z,74.85
2023-07-03T02:41:03.177Z,75.10
2023-07-03T02:43:33.055Z,75.18
2023-07-03T02:46:04.621Z,75.37
2023-07-03T02:48:31.458Z,75.39
2023-07-03T02:50:58.376Z,75.37
2023-07-03T02:53:24.936Z,75.49
2023-07-03T02:55:54.765Z,75.52
2023-07-03T02:58:23.537Z,75.45
2023-07-03T03:00:50.245Z,76.05
2023-07-03T03:03:17.024Z,75.93
2023-07-03T03:05:43.720Z,75.54
2023-07-03T03:08:12.446Z,75.55
2023-07-03T03:10:39.393Z,75.61
2023-07-03T03:13:06.299Z,75.69
2023-07-03T03:15:36.088Z,76.07
2023-07-03T03:18:06.069Z,76.59
2023-07-03T03:20:33.138Z,76.43
2023-07-03T03:22:59.901Z,76.43
2023-07-03T03:25:26.594Z,76.99
2023-07-03T03:27:53.131Z,76.78
2023-07-03T03:30:19.766Z,77.10
2023-07-03T03:32:47.943Z,77.10
2023-07-03T03:35:14.773Z,77.23
2023-07-03T03:37:41.464Z,77.40
2023-07-03T03:40:10.272Z,77.38
2023-07-03T03:42:37.859Z,77.15
2023-07-03T03:45:05.483Z,77.71
2023-07-03T03:47:32.098Z,77.42
2023-07-03T03:49:58.725Z,77.71
2023-07-03T03:54:52.310Z,77.67
2023-07-03T03:57:19.231Z,77.56
2023-07-03T03:59:45.854Z,77.42
2023-07-03T04:02:15.903Z,77.33
2023-07-03T04:04:42.737Z,77.32
2023-07-03T04:07:10.593Z,77.14
2023-07-03T04:09:37.228Z,77.05
2023-07-03T04:12:04.003Z,76.75
2023-07-03T04:14:32.012Z,76.95
2023-07-03T04:16:59.454Z,77.11
2023-07-03T04:19:29.030Z,76.86
2023-07-03T04:21:55.627Z,76.82
2023-07-03T04:24:22.763Z,76.84
2023-07-03T04:26:49.553Z,77.07
2023-07-03T04:29:16.110Z,77.34
2023-07-03T04:31:42.709Z,76.87
2023-07-03T04:34:09.279Z,76.85
2023-07-03T04:36:35.794Z,76.85
2023-07-03T04:39:02.496Z,76.45
2023-07-03T04:41:29.203Z,76.86
2023-07-03T04:43:59.249Z,76.46
2023-07-03T04:46:27.972Z,76.42
2023-07-03T04:49:01.653Z,76.37
2023-07-03T04:51:32.139Z,75.99
2023-07-03T04:54:00.922Z,75.84
2023-07-03T04:56:28.907Z,75.34
2023-07-03T04:58:55.418Z,74.94
2023-07-03T05:01:22.323Z,73.61
2023-07-03T05:03:49.073Z,71.50
2023-07-03T05:06:15.735Z,68.87
2023-07-03T05:08:42.416Z,68.11
2023-07-03T05:11:09.198Z,67.15
2023-07-03T05:13:35.858Z,66.38
2023-07-03T05:16:02.646Z,65.84
2023-07-03T05:18:29.561Z,65.34
2023-07-03T05:20:56.274Z,64.65
2023-07-03T05:23:23.091Z,64.13
2023-07-03T05:25:49.954Z,63.84
2023-07-03T05:28:16.905Z,62.80
2023-07-03T05:30:43.480Z,62.31
2023-07-03T05:33:12.133Z,62.18
2023-07-03T05:35:48.714Z,62.06
2023-07-03T05:38:16.996Z,62.14
2023-07-03T05:40:43.565Z,61.55
2023-07-03T05:43:10.330Z,62.06
2023-07-03T05:45:37.008Z,61.28
2023-07-03T05:48:03.696Z,60.93
2023-07-03T05:50:30.351Z,60.58
2023-07-03T05:52:56.912Z,60.31
2023-07-03T05:55:23.674Z,59.87
2023-07-03T05:57:50.320Z,60.11
2023-07-03T06:00:17.441Z,60.19
2023-07-03T06:02:45.355Z,60.65
2023-07-03T06:05:13.296Z,59.17
2023-07-03T06:07:40.765Z,59.25
2023-07-03T06:10:09.156Z,59.70
2023-07-03T06:12:35.746Z,58.70
2023-07-03T06:15:02.534Z,59.08
2023-07-03T06:17:30.586Z,59.52
2023-07-03T06:19:57.313Z,59.24
2023-07-03T06:22:24.279Z,59.50
2023-07-03T06:24:51.219Z,59.55
2023-07-03T06:27:18.361Z,59.75
2023-07-03T06:29:46.054Z,59.36
2023-07-03T06:32:12.713Z,58.25
2023-07-03T06:34:40.842Z,58.99
2023-07-03T06:37:08.900Z,59.05
2023-07-03T06:39:39.064Z,57.34
2023-07-03T06:42:06.505Z,57.84
2023-07-03T06:44:33.105Z,58.37
2023-07-03T06:46:59.889Z,58.20
2023-07-03T06:49:26.859Z,56.04
2023-07-03T06:51:53.578Z,55.77
2023-07-03T06:54:20.673Z,56.21
2023-07-03T06:56:48.272Z,55.65
2023-07-03T06:59:14.927Z,55.23
2023-07-03T07:01:42.399Z,56.60
2023-07-03T07:04:12.053Z,55.21
2023-07-03T07:06:40.295Z,53.75
2023-07-03T07:09:06.985Z,54.02
2023-07-03T07:11:35.929Z,54.27
2023-07-03T07:14:04.290Z,55.03
2023-07-03T07:16:35.569Z,53.83
2023-07-03T07:19:06.772Z,53.56
2023-07-03T07:21:36.030Z,53.35
2023-07-03T07:24:23.924Z,51.76
2023-07-03T07:26:59.356Z,49.67
2023-07-03T07:29:26.584Z,50.16
2023-07-03T07:31:57.756Z,50.09
2023-07-03T07:34:25.287Z,51.19
2023-07-03T07:36:52.330Z,51.88
2023-07-03T07:39:21.389Z,51.99
2023-07-03T07:41:48.800Z,51.02
2023-07-03T07:44:15.318Z,50.76
2023-07-03T07:46:42.137Z,51.97
2023-07-03T07:49:09.980Z,52.83
2023-07-03T07:51:37.598Z,51.87
2023-07-03T07:54:06.447Z,49.86
2023-07-03T07:56:34.450Z,50.34
2023-07-03T07:59:01.613Z,51.56
2023-07-03T08:01:28.427Z,50.18
2023-07-03T08:03:55.379Z,50.73
2023-07-03T08:06:22.258Z,51.37
2023-07-03T08:08:51.050Z,51.34
2023-07-03T08:11:17.605Z,51.60
2023-07-03T08:13:44.140Z,50.19
2023-07-03T08:16:11.880Z,49.37
2023-07-03T08:18:39.030Z,49.98
2023-07-03T08:21:05.791Z,50.17
2023-07-03T08:23:32.466Z,50.07
2023-07-03T08:26:00.283Z,50.83
2023-07-03T08:28:27.214Z,51.14
2023-07-03T08:30:53.997Z,50.82
2023-07-03T08:33:20.846Z,50.88
2023-07-03T08:38:21.052Z,51.41
2023-07-03T08:40:48.351Z,52.17
2023-07-03T08:43:22.693Z,52.31
2023-07-03T08:45:52.220Z,52.55
2023-07-03T08:48:25.383Z,52.88
2023-07-03T08:50:55.870Z,53.50
2023-07-03T08:53:28.540Z,53.35
2023-07-03T08:56:36.878Z,53.08
2023-07-03T08:59:05.528Z,53.51
2023-07-03T09:01:49.534Z,52.94
2023-07-03T09:04:42.331Z,52.08
2023-07-03T09:07:14.821Z,51.04
2023-07-03T09:09:58.622Z,50.66
2023-07-03T09:13:06.310Z,51.68
2023-07-03T09:15:46.516Z,51.52
2023-07-03T09:18:18.811Z,51.92
2023-07-03T09:20:46.679Z,51.67
2023-07-03T09:23:29.881Z,52.00
2023-07-03T09:26:05.233Z,52.22
2023-07-03T09:28:38.558Z,51.22
2023-07-03T09:31:05.516Z,50.86
2023-07-03T09:33:32.377Z,49.95
2023-07-03T09:36:20.022Z,49.38
2023-07-03T09:38:48.555Z,48.43
2023-07-03T09:41:25.201Z,49.04
2023-07-03T09:43:51.819Z,48.73
2023-07-03T09:46:20.923Z,47.87
2023-07-03T09:48:48.013Z,48.05
2023-07-03T09:51:24.306Z,47.80
2023-07-03T09:53:51.610Z,47.84
2023-07-03T09:56:22.833Z,48.30
2023-07-03T09:58:52.369Z,49.51
2023-07-03T10:06:42.993Z,49.32
2023-07-03T10:12:03.872Z,47.11
2023-07-03T10:14:53.684Z,47.71
2023-07-03T10:17:31.644Z,48.55
2023-07-03T10:20:04.968Z,48.16
2023-07-03T10:22:32.772Z,48.90
2023-07-03T10:25:03.617Z,49.02
2023-07-03T10:27:31.463Z,48.81
2023-07-03T10:30:00.268Z,46.45
2023-07-03T10:32:34.464Z,43.94
2023-07-03T10:35:11.751Z,43.29
2023-07-03T10:38:12.223Z,43.12
2023-07-03T10:40:59.323Z,44.14
2023-07-03T10:43:29.923Z,43.81
2023-07-03T10:45:58.364Z,43.21
2023-07-03T10:48:29.998Z,43.82
2023-07-03T10:51:05.920Z,43.56
2023-07-03T10:53:45.856Z,45.13
2023-07-03T10:56:42.811Z,46.16
2023-07-03T10:59:16.380Z,46.27
2023-07-03T11:02:03.822Z,47.46
2023-07-03T11:04:56.550Z,48.33
2023-07-03T11:07:48.572Z,48.92
2023-07-03T11:10:45.203Z,51.46
2023-07-03T11:13:18.161Z,53.51
2023-07-03T11:15:54.083Z,54.72
2023-07-03T11:24:01.924Z,57.58
2023-07-03T11:29:13.027Z,58.17
2023-07-03T11:31:43.760Z,58.23
2023-07-03T11:44:32.217Z,49.15
2023-07-03T11:47:00.538Z,48.53
2023-07-03T11:49:38.741Z,44.75
2023-07-03T11:52:07.593Z,44.18
2023-07-03T11:54:37.130Z,43.14
2023-07-03T11:57:07.939Z,43.72
2023-07-03T11:59:44.029Z,43.55
2023-07-03T12:02:16.777Z,43.69
2023-07-03T12:04:49.481Z,44.93
2023-07-03T12:07:19.982Z,45.86
2023-07-03T12:09:47.764Z,46.19
2023-07-03T12:12:29.600Z,46.56
2023-07-03T12:14:58.796Z,47.43
2023-07-03T12:17:33.973Z,48.90
2023-07-03T12:20:08.418Z,48.55
2023-07-03T12:22:41.163Z,49.32
2023-07-03T12:25:20.302Z,49.33
2023-07-03T12:27:48.587Z,47.68
2023-07-03T12:30:22.823Z,47.35
2023-07-03T12:32:50.114Z,46.89
2023-07-03T12:35:23.344Z,47.35
2023-07-03T12:37:52.852Z,47.63
2023-07-03T12:40:20.995Z,46.79
2023-07-03T12:42:49.293Z,46.82
2023-07-03T12:45:20.534Z,46.78
2023-07-03T12:48:10.092Z,45.91
2023-07-03T12:50:46.485Z,44.88
2023-07-03T12:53:13.905Z,45.04
2023-07-03T12:55:42.529Z,44.08
2023-07-03T12:58:12.892Z,43.89
2023-07-03T13:00:39.898Z,43.49
2023-07-03T13:03:09.068Z,43.15
2023-07-03T13:05:37.522Z,43.74
2023-07-03T13:08:11.084Z,43.74
2023-07-03T13:10:38.011Z,44.78
2023-07-03T13:13:18.346Z,45.18
2023-07-03T13:15:46.141Z,44.04
2023-07-03T13:18:14.726Z,44.47
2023-07-03T13:20:53.892Z,43.85
2023-07-03T13:23:36.143Z,44.20
2023-07-03T13:26:07.305Z,44.77
2023-07-03T13:28:37.495Z,44.72
2023-07-03T13:31:04.144Z,44.60
2023-07-03T13:33:30.880Z,44.88
2023-07-03T13:35:57.629Z,43.82
2023-07-03T13:38:24.450Z,44.16
2023-07-03T13:40:53.540Z,43.85
2023-07-03T13:43:23.088Z,44.26
2023-07-03T13:45:51.800Z,43.46
2023-07-03T13:48:19.569Z,44.31
2023-07-03T13:50:47.057Z,44.79
2023-07-03T13:53:13.650Z,44.47
2023-07-03T13:55:40.886Z,45.11
2023-07-03T13:58:07.617Z,45.31
2023-07-03T14:00:35.730Z,45.21
2023-07-03T14:03:02.745Z,46.07
2023-07-03T14:05:29.476Z,46.12
2023-07-03T14:07:58.997Z,44.89
2023-07-03T14:10:26.329Z,41.44
2023-07-03T14:12:53.821Z,41.70
2023-07-03T14:15:26.898Z,42.27
2023-07-03T14:17:54.319Z,43.27
2023-07-03T14:20:22.782Z,43.34
2023-07-03T14:22:49.604Z,43.81
2023-07-03T14:25:17.555Z,44.95
2023-07-03T14:27:44.420Z,45.36
2023-07-03T14:30:12.758Z,44.34
2023-07-03T14:32:53.113Z,44.34
2023-07-03T14:35:23.895Z,43.90
2023-07-03T14:37:50.728Z,43.66
2023-07-03T14:40:17.736Z,43.79
2023-07-03T14:42:45.302Z,44.71
2023-07-03T14:45:12.736Z,44.99
2023-07-03T14:47:41.668Z,46.24
2023-07-03T14:50:12.870Z,46.16
2023-07-03T14:52:44.920Z,45.69
2023-07-03T14:55:13.604Z,45.53
2023-07-03T14:57:40.895Z,45.42
2023-07-03T15:00:09.916Z,45.81
2023-07-03T15:02:38.733Z,45.21
2023-07-03T15:05:05.857Z,46.00
2023-07-03T15:07:32.558Z,45.53
2023-07-03T15:09:59.222Z,45.91
2023-07-03T15:12:25.820Z,45.35
2023-07-03T15:14:55.705Z,45.55
2023-07-03T15:17:22.274Z,45.61
2023-07-03T15:19:48.876Z,45.43
2023-07-03T15:22:16.816Z,45.77
2023-07-03T15:24:44.007Z,45.65
2023-07-03T15:27:11.513Z,45.55
2023-07-03T15:29:38.070Z,45.77
2023-07-03T15:32:04.955Z,45.78
2023-07-03T15:34:31.565Z,46.26
2023-07-03T15:36:58.980Z,45.39
2023-07-03T15:39:26.737Z,44.36
2023-07-03T15:41:53.651Z,43.59
2023-07-03T15:44:21.217Z,44.91
2023-07-03T15:46:50.416Z,44.74
2023-07-03T15:49:17.217Z,44.33
2023-07-03T15:51:44.706Z,45.03
2023-07-03T15:54:11.339Z,45.01
2023-07-03T15:56:38.126Z,45.39
2023-07-03T15:59:05.295Z,45.56
2023-07-03T16:01:31.893Z,46.10
2023-07-03T16:04:02.358Z,44.45
2023-07-03T16:06:34.988Z,44.19
2023-07-03T16:09:02.536Z,43.18
2023-07-03T16:11:29.908Z,43.67
2023-07-03T16:13:59.874Z,44.12
2023-07-03T16:16:28.614Z,43.90
2023-07-03T16:19:00.814Z,44.25
2023-07-03T16:21:30.949Z,44.30
2023-07-03T16:23:58.934Z,44.52
2023-07-03T16:26:26.951Z,44.55
2023-07-03T16:28:54.568Z,44.76
2023-07-03T16:31:23.790Z,44.39
2023-07-03T16:33:52.186Z,44.88
2023-07-03T16:36:24.344Z,44.93
2023-07-03T16:38:53.313Z,44.85
2023-07-03T16:41:21.526Z,44.17
2023-07-03T16:43:50.223Z,44.47
2023-07-03T16:46:19.976Z,44.60
2023-07-03T16:48:49.027Z,44.84
2023-07-03T16:51:18.236Z,45.06
2023-07-03T16:53:45.876Z,44.68
2023-07-03T16:56:13.825Z,42.77
2023-07-03T16:58:44.226Z,43.50
2023-07-03T17:01:12.158Z,43.96
2023-07-03T17:03:39.024Z,44.02
2023-07-03T17:06:13.783Z,44.20
2023-07-03T17:08:40.322Z,44.89
2023-07-03T17:11:06.981Z,45.34
2023-07-03T17:13:33.643Z,46.27
2023-07-03T17:16:00.418Z,46.88
2023-07-03T17:18:27.066Z,47.02
2023-07-03T17:20:53.638Z,47.10
2023-07-03T17:23:20.258Z,47.16
2023-07-03T17:25:46.994Z,48.27
2023-07-03T17:28:13.742Z,48.06
2023-07-03T17:30:40.677Z,48.48
2023-07-03T17:33:08.548Z,49.33
2023-07-03T17:35:35.933Z,49.47
2023-07-03T17:38:02.634Z,49.51
2023-07-03T17:40:29.276Z,50.06
2023-07-03T17:42:55.802Z,50.30
2023-07-03T17:45:22.375Z,50.73
2023-07-03T17:47:49.144Z,50.70
2023-07-03T17:50:15.858Z,51.19
2023-07-03T17:52:42.794Z,50.58
2023-07-03T17:55:09.715Z,49.45
2023-07-03T17:57:36.335Z,49.94
2023-07-03T18:00:03.809Z,50.17
2023-07-03T18:02:30.736Z,50.44
2023-07-03T18:04:57.541Z,50.34
2023-07-03T18:07:24.299Z,50.72
2023-07-03T18:09:51.042Z,51.02
2023-07-03T18:12:17.820Z,50.72
2023-07-03T18:14:44.391Z,50.49
2023-07-03T18:17:12.040Z,50.76
2023-07-03T18:19:38.903Z,50.51
2023-07-03T18:22:05.466Z,50.86
2023-07-03T18:24:32.101Z,50.56
2023-07-03T18:26:58.790Z,52.67
2023-07-03T18:29:25.501Z,53.26
2023-07-03T18:31:52.326Z,53.40
2023-07-03T18:34:19.086Z,53.04
2023-07-03T18:36:45.673Z,53.37
2023-07-03T18:39:12.362Z,53.33
2023-07-03T18:41:39.090Z,53.34
2023-07-03T18:44:07.204Z,53.58
2023-07-03T18:46:34.131Z,53.83
2023-07-03T18:49:00.926Z,54.15
2023-07-03T18:51:27.659Z,54.41
2023-07-03T18:53:54.662Z,54.27
2023-07-03T18:56:22.768Z,54.08
2023-07-03T18:58:53.089Z,53.89
2023-07-03T19:01:20.451Z,53.43
2023-07-03T19:03:47.233Z,53.80
2023-07-03T19:06:16.730Z,53.90
2023-07-03T19:08:43.740Z,53.87
2023-07-03T19:11:10.752Z,54.38
2023-07-03T19:13:38.075Z,55.38
2023-07-03T19:16:06.802Z,56.58
2023-07-03T19:18:35.160Z,57.54
2023-07-03T19:21:01.741Z,58.57
2023-07-03T19:23:28.345Z,59.35
2023-07-03T19:25:56.977Z,60.23
2023-07-03T19:28:24.831Z,60.80
2023-07-03T19:31:02.933Z,61.94
2023-07-03T19:33:30.875Z,64.00
2023-07-03T19:36:00.464Z,66.47
2023-07-03T19:38:28.002Z,69.18
2023-07-03T19:40:54.743Z,72.57
2023-07-03T19:43:21.445Z,74.89
2023-07-03T19:45:48.095Z,76.34
2023-07-03T19:48:14.834Z,78.74
2023-07-03T19:50:42.775Z,80.99
2023-07-03T19:53:10.802Z,82.26
2023-07-03T19:55:38.902Z,83.89
2023-07-03T19:58:05.819Z,85.26
2023-07-03T20:00:32.954Z,86.71
2023-07-03T20:03:00.431Z,86.88
2023-07-03T20:05:26.980Z,87.34
2023-07-03T20:07:53.480Z,88.18
2023-07-03T20:10:20.358Z,88.31
2023-07-03T20:12:51.762Z,89.01
2023-07-03T20:15:20.881Z,89.41
2023-07-03T20:17:48.033Z,89.33
2023-07-03T20:20:15.664Z,89.98
2023-07-03T20:22:45.991Z,90.84
2023-07-03T20:25:12.926Z,90.72
2023-07-03T20:27:39.658Z,91.00
2023-07-03T20:30:07.580Z,91.56
2023-07-03T20:32:35.598Z,91.64
2023-07-03T20:35:03.109Z,91.71
2023-07-03T20:37:29.683Z,92.22
2023-07-03T20:39:58.982Z,92.56
2023-07-03T20:42:26.036Z,93.01
2023-07-03T20:44:54.776Z,93.59
2023-07-03T20:47:21.981Z,93.82
2023-07-03T20:49:48.935Z,94.35
2023-07-03T20:52:17.443Z,94.81
2023-07-03T20:54:54.474Z,95.13
2023-07-03T20:57:20.988Z,95.01
2023-07-03T20:59:51.501Z,95.10
2023-07-03T21:02:19.179Z,95.19
2023-07-03T21:04:45.734Z,94.87
2023-07-03T21:07:12.271Z,94.90
2023-07-03T21:09:38.975Z,94.53
2023-07-03T21:12:07.582Z,94.60
2023-07-03T21:14:34.194Z,95.05
2023-07-03T21:17:00.729Z,95.25
2023-07-03T21:19:27.414Z,94.66
2023-07-03T21:21:55.070Z,94.70
2023-07-03T21:24:22.503Z,94.28
2023-07-03T21:26:50.533Z,94.61
2023-07-03T21:29:17.098Z,94.91
2023-07-03T21:31:43.809Z,94.76
2023-07-03T21:34:13.113Z,94.95
2023-07-03T21:36:40.126Z,95.50
2023-07-03T21:39:07.251Z,95.61
2023-07-03T21:41:36.137Z,96.04
2023-07-03T21:44:11.386Z,96.43
2023-07-03T21:46:38.141Z,96.56
2023-07-03T21:49:05.914Z,96.67
2023-07-03T21:51:32.580Z,96.83
2023-07-03T21:53:59.378Z,96.85
2023-07-03T21:56:29.533Z,96.53
2023-07-03T21:59:04.862Z,95.69
2023-07-03T22:01:38.711Z,95.12
2023-07-03T22:04:07.361Z,95.10
2023-07-03T22:06:34.228Z,94.56
2023-07-03T22:09:00.800Z,93.89
2023-07-03T22:11:28.675Z,93.83
2023-07-03T22:13:55.962Z,94.10
2023-07-03T22:16:22.727Z,94.22
2023-07-03T22:18:50.348Z,94.10
2023-07-03T22:21:18.891Z,94.01
2023-07-03T22:23:50.023Z,93.83
2023-07-03T22:26:17.244Z,94.10
2023-07-03T22:28:44.009Z,94.33
2023-07-03T22:31:12.213Z,94.55
2023-07-03T22:33:39.455Z,94.32
2023-07-03T22:36:08.595Z,94.12
2023-07-03T22:38:35.314Z,94.04
2023-07-03T22:41:02.187Z,94.36
2023-07-03T22:43:31.625Z,94.36
2023-07-03T22:46:03.220Z,94.75
2023-07-03T22:48:30.848Z,94.77
2023-07-03T22:50:57.498Z,94.94
2023-07-03T22:53:24.084Z,95.48
2023-07-03T22:55:50.946Z,95.65
2023-07-03T22:58:17.730Z,95.65
2023-07-03T23:00:44.301Z,95.60
2023-07-03T23:03:11.097Z,95.54
2023-07-03T23:05:47.954Z,96.00
2023-07-03T23:08:16.252Z,95.63
2023-07-03T23:10:51.364Z,95.78
2023-07-03T23:13:19.199Z,95.50
2023-07-03T23:15:57.104Z,95.44
2023-07-03T23:18:24.382Z,95.69
2023-07-03T23:21:02.123Z,95.88
2023-07-03T23:23:32.198Z,96.03
2023-07-03T23:26:05.464Z,95.58
2023-07-03T23:28:35.879Z,95.99
2023-07-03T23:31:08.623Z,96.22
2023-07-03T23:33:35.546Z,96.44
2023-07-03T23:36:14.397Z,96.30
2023-07-03T23:38:42.888Z,96.01
2023-07-03T23:41:11.787Z,96.20
2023-07-03T23:43:39.868Z,96.41
2023-07-03T23:46:09.081Z,96.57
2023-07-03T23:48:37.110Z,96.78
2023-07-03T23:51:06.127Z,96.97
2023-07-03T23:53:34.190Z,96.98
2023-07-03T23:56:06.975Z,96.85
2023-07-03T23:58:35.384Z,97.00
